Date,TemperatureHighF,TemperatureAvgF,TemperatureLowF,DewpointHighF,DewpointAvgF,DewpointLowF,HumidityHigh,HumidityAvg,HumidityLow,PressureMaxIn,PressureMinIn,WindSpeedMaxMPH,WindSpeedAvgMPH,GustSpeedMaxMPH,PrecipitationSumIn
2013-1-1,64.8,48.1,38.1,45.7,37.7,29.9,83,68,38,30.18,29.97,3,0,5,0.00
2013-1-2,58.1,51.8,47.3,50.8,44.2,41.9,90,76,60,30.30,30.06,7,1,8,0.00
2013-1-3,70.3,53.1,45.7,44.2,40.3,37.3,77,64,36,30.54,30.30,1,0,2,0.00
2013-1-4,68.9,50.5,41.4,45.6,39.0,35.5,84,66,39,30.51,30.30,1,0,2,0.00
2013-1-5,64.4,49.2,39.9,45.7,39.1,34.3,85,69,45,30.36,30.09,1,0,2,0.00
2013-1-6,69.3,51.0,42.8,45.5,41.2,36.9,84,71,41,30.24,30.06,3,0,3,0.00
2013-1-7,72.1,52.7,44.6,47.2,42.0,38.4,86,69,36,30.27,30.06,2,0,2,0.00
2013-1-8,56.3,47.8,41.5,44.5,39.8,35.7,86,74,54,30.33,30.21,3,0,3,0.00
2013-1-9,55.4,50.8,46.0,47.9,42.9,40.8,85,75,61,30.24,30.12,1,0,2,0.00
2013-1-10,53.4,51.3,47.7,49.1,44.2,38.8,92,77,61,30.12,29.83,5,1,7,0.00
2013-1-11,59.2,48.6,41.9,51.0,42.8,39.0,96,81,58,29.86,29.68,3,0,5,0.00
2013-1-12,66.0,49.0,38.8,47.3,40.1,35.2,93,73,44,30.04,29.86,4,1,5,0.00
2013-1-13,53.6,50.2,48.6,47.9,45.1,41.2,89,83,74,30.04,29.83,7,2,8,0.00
2013-1-23,48.0,47.6,47.3,42.9,42.6,42.3,84,83,82,29.71,29.71,3,2,5,73.66
2013-1-24,48.0,46.7,44.8,36.5,35.5,33.9,66,65,63,29.47,29.47,2,0,4,0.00
2013-1-25,62.1,47.8,40.6,41.8,32.6,27.3,77,57,36,29.65,29.42,3,1,4,0.00
2013-1-26,61.5,46.1,38.8,32.7,26.5,23.1,59,47,33,29.86,29.62,2,0,3,0.00
2013-1-27,65.1,45.1,36.9,36.8,28.0,22.1,69,52,34,30.01,29.86,3,0,4,0.00
2013-1-28,48.7,46.1,40.5,44.2,39.5,30.7,89,78,66,30.06,29.83,6,0,6,0.00
2013-1-29,69.3,50.4,41.2,44.7,39.5,35.3,87,69,34,30.24,30.06,2,0,3,0.00
2013-1-30,68.5,51.8,41.7,48.8,41.5,36.6,86,70,37,30.27,30.15,4,0,6,0.00
2013-1-31,75.9,56.8,48.0,52.3,46.9,43.0,92,72,36,30.21,30.12,4,0,4,0.00
2013-2-1,66.6,55.3,48.2,52.1,48.6,43.9,90,79,52,30.15,29.74,6,2,9,0.00
2013-2-2,61.9,55.5,52.2,53.3,47.3,32.9,93,75,47,29.74,29.24,8,4,11,0.00
2013-2-3,60.6,50.2,44.4,43.4,33.7,22.2,73,54,39,29.98,29.33,7,1,7,0.00
2013-2-4,69.4,50.0,39.4,32.9,26.0,20.3,58,40,23,30.15,29.95,2,0,3,0.00
2013-2-5,55.2,51.5,41.3,48.9,45.2,31.5,92,79,38,30.06,29.77,9,3,10,0.00
2013-2-6,63.0,51.2,43.3,48.3,38.5,28.1,93,65,36,29.80,29.47,7,2,8,0.00
2013-2-7,58.3,46.0,41.2,44.8,36.9,31.2,86,71,47,29.56,29.44,4,0,5,0.00
2013-2-8,62.6,47.3,41.4,32.3,27.2,21.2,68,46,31,29.74,29.56,3,1,6,0.00
2013-2-9,60.4,44.9,38.7,28.1,23.9,21.2,57,44,27,29.83,29.71,2,0,4,0.00
2013-2-10,54.7,48.2,39.9,26.9,25.0,23.3,51,40,33,29.92,29.89,1,0,3,73.66
2013-2-11,48.0,47.0,46.8,45.0,44.4,43.5,93,91,86,29.56,29.53,8,3,11,0.00
2013-2-12,64.6,49.4,43.2,47.7,41.2,36.3,92,75,44,29.68,29.53,4,1,6,0.00
2013-2-13,68.4,48.5,39.7,42.4,33.4,28.0,83,59,30,29.83,29.65,2,0,3,0.00
2013-2-14,70.7,49.9,39.6,37.2,31.3,28.6,67,50,27,30.01,29.83,2,0,3,0.00
2013-2-15,68.9,48.2,38.3,39.7,31.6,27.7,70,54,30,30.04,29.95,2,0,3,0.00
2013-2-16,71.6,50.8,41.2,39.4,34.4,30.3,72,56,28,30.06,29.98,2,0,3,0.00
2013-2-17,66.9,47.1,41.0,40.5,34.0,29.5,73,61,36,30.06,29.98,5,0,6,0.00
2013-2-18,64.4,47.0,40.3,41.6,34.6,31.1,78,63,38,30.01,29.95,2,0,2,0.00
2013-2-19,70.9,48.3,37.8,37.3,29.7,24.2,69,51,24,30.04,29.95,3,0,3,0.00
2013-2-20,65.5,47.2,37.2,36.4,30.9,26.0,68,54,34,30.01,29.89,4,0,4,0.00
2013-2-21,72.1,51.3,38.7,42.2,35.0,29.7,74,56,27,29.92,29.65,6,1,7,0.00
2013-2-22,59.4,51.7,47.7,49.7,45.1,41.5,87,78,59,29.68,29.42,10,3,11,0.00
2013-2-23,55.6,50.0,42.8,54.4,43.9,35.6,97,80,58,29.62,29.39,14,2,17,0.00
2013-2-24,54.1,46.3,40.3,36.7,31.5,25.6,71,57,37,29.95,29.62,7,2,9,0.00
2013-2-25,49.8,43.1,40.6,40.8,35.2,30.5,84,74,64,30.04,29.92,6,1,6,0.00
2013-3-4,48.7,48.6,48.2,38.7,38.5,38.1,68,68,68,30.21,30.18,2,1,3,73.66
2013-3-5,58.5,52.1,44.6,42.8,37.0,30.5,76,58,36,30.21,29.95,5,0,6,0.00
2013-3-6,61.7,56.2,52.7,56.1,45.7,34.4,98,71,39,29.95,29.68,13,3,19,0.00
2013-3-7,64.4,58.2,41.3,58.8,54.8,31.5,97,89,38,29.97,29.71,6,2,8,0.00
2013-3-8,59.9,57.5,55.8,55.1,53.6,51.4,94,87,77,29.80,29.65,8,3,11,0.00
2013-3-9,71.6,59.9,53.6,56.5,50.7,41.3,96,75,36,29.80,29.68,7,2,10,0.00
2013-3-10,69.8,58.5,41.3,55.0,49.2,31.5,94,74,38,29.97,29.53,10,2,11,0.00
2013-3-11,67.5,57.3,52.7,53.2,48.3,41.4,93,73,46,29.62,29.53,6,1,8,0.00
2013-3-12,60.6,52.4,48.4,50.9,45.9,42.3,86,79,64,29.59,29.47,6,1,7,0.00
2013-3-13,55.8,49.9,45.9,49.1,45.8,43.1,92,86,73,29.53,29.27,7,1,8,0.00
2013-3-14,64.8,50.9,44.6,47.8,38.3,29.8,94,65,36,29.27,29.12,4,1,6,0.00
2013-3-15,63.1,48.5,42.8,33.5,26.8,20.3,56,43,32,29.86,29.27,4,0,4,0.00
2013-3-16,66.0,46.7,37.9,35.3,24.8,19.7,55,42,26,30.12,29.86,5,1,6,0.00
2013-3-17,53.1,47.4,41.3,35.3,31.6,27.3,62,54,38,30.09,29.89,10,2,12,0.00
2013-3-18,58.5,55.8,41.3,55.3,48.5,31.5,95,77,38,29.68,29.47,15,4,18,73.66
2013-3-19,66.4,57.0,49.8,43.5,41.4,38.3,74,57,42,29.83,29.68,6,2,8,0.00
2013-3-20,57.9,51.8,45.7,49.2,41.8,37.3,92,70,46,29.80,29.65,7,1,10,0.00
2013-3-21,69.3,55.8,47.5,50.1,39.7,29.1,93,59,28,29.98,29.68,5,1,6,0.00
2013-3-22,76.3,55.1,42.8,45.0,39.1,30.6,78,59,22,29.98,29.86,4,0,4,0.00
2013-3-23,65.5,53.8,41.3,47.6,43.2,31.5,82,69,38,29.97,29.83,7,1,7,0.00
2013-3-24,73.8,64.9,60.1,45.9,41.8,33.9,59,44,24,29.97,29.44,9,3,14,0.00
2013-3-25,59.4,58.0,55.9,51.1,49.8,47.6,81,74,68,29.33,29.30,3,0,4,0.00
2013-3-30,61.9,60.1,41.3,53.1,51.7,31.5,75,72,38,29.97,29.62,10,8,10,0.00
2013-4-3,53.8,52.8,41.3,48.7,47.3,31.5,85,79,38,29.97,29.62,0,0,1,73.66
2013-4-12,70.9,64.8,41.3,54.9,51.1,31.5,86,62,38,30.04,29.95,12,5,15,73.66
2013-4-13,82.0,64.6,56.1,55.6,51.4,42.5,90,67,30,30.27,30.04,8,1,8,0.00
2013-4-14,81.9,64.4,53.4,53.2,48.0,42.1,81,60,26,30.36,30.24,4,0,4,0.00
2013-4-19,81.9,72.7,60.1,58.7,50.1,40.6,81,47,33,30.04,29.95,6,1,6,73.66
2013-4-27,62.2,61.1,41.3,59.0,57.5,31.5,91,87,38,29.97,29.77,9,5,14,73.66
2013-4-28,61.2,61.2,61.2,58.2,58.2,58.2,90,90,90,29.86,29.86,3,3,4,0.00
2013-4-29,70.5,66.9,41.3,42.5,40.6,31.5,38,36,34,30.01,29.97,1,0,0,73.66
2013-4-30,87.3,74.3,67.8,50.3,46.6,42.5,50,38,22,30.09,29.98,7,2,9,0.00
2013-5-1,80.8,70.1,65.3,55.6,51.7,48.4,64,53,34,30.04,30.01,3,0,4,0.00
2013-5-5,67.1,65.7,41.3,59.7,58.0,31.5,78,75,38,30.04,30.01,0,0,0,73.66
2013-5-11,41.3,41.3,41.3,31.5,31.5,31.5,38,38,38,29.92,29.92,4,3,4,0.00
2013-5-12,65.5,61.3,41.3,54.7,51.3,31.5,73,66,38,29.97,29.86,2,0,2,73.66
2013-5-13,63.0,59.9,57.4,55.3,52.7,51.3,82,77,70,29.95,29.89,2,0,3,0.00
2013-5-26,64.9,60.8,55.8,47.8,43.6,38.6,74,54,39,30.04,29.92,4,2,6,73.66
2013-5-27,69.8,61.9,54.3,51.8,46.1,34.0,77,58,30,30.04,29.95,7,2,9,0.00
2013-6-8,82.6,78.3,41.3,56.1,53.3,31.5,48,42,37,30.01,29.95,6,1,6,73.66
2013-6-10,70.5,68.5,67.6,55.9,51.5,48.0,66,55,45,29.97,29.89,2,0,4,73.66
2013-6-11,82.6,70.4,61.9,58.2,54.6,50.3,81,59,36,29.98,29.89,6,1,6,0.00
2013-6-12,93.0,75.3,63.7,58.3,51.2,41.2,80,49,20,30.01,29.95,4,1,6,0.00
2013-6-13,80.6,74.8,41.3,52.2,49.2,31.5,50,40,30,30.04,29.97,2,0,2,73.66
2013-6-14,88.7,76.0,67.8,57.8,49.8,45.9,61,41,28,30.06,29.98,5,1,6,0.00
2013-6-15,86.5,75.5,66.4,62.0,58.7,55.2,78,58,37,30.06,30.01,6,1,6,0.00
2013-7-1,69.6,66.0,41.3,50.7,48.3,31.5,52,49,38,30.09,29.97,1,0,1,73.66
2013-7-6,90.0,82.4,74.1,53.2,51.5,49.4,45,35,26,30.09,29.97,2,0,3,73.66
2013-7-24,90.9,89.9,88.7,64.1,60.5,55.5,44,38,31,30.01,29.98,5,2,6,73.66
2013-7-29,86.2,81.5,41.3,76.3,73.4,31.5,87,76,38,30.04,29.97,6,2,9,1.01
2013-7-30,95.2,82.8,75.4,75.5,60.5,51.1,87,50,28,30.04,29.92,6,1,6,0.00
2013-7-31,96.6,82.5,74.3,65.2,55.0,45.7,60,40,20,29.95,29.89,7,1,10,0.00
2013-8-1,95.4,82.7,74.1,62.0,51.6,45.8,53,35,20,30.01,29.95,4,1,9,0.00
2013-8-10,71.8,66.3,71.8,58.5,46.3,-99.9,63,58,63,29.83,29.83,0,0,0,0.00
2013-8-20,75.4,71.4,41.3,55.6,52.8,31.5,51,49,38,29.97,29.92,1,0,2,73.66
2013-8-29,69.4,67.7,41.3,61.9,60.1,31.5,77,75,38,30.04,29.97,1,0,0,0.00
2013-9-1,79.0,74.3,41.3,59.5,57.0,31.5,62,54,38,30.06,29.97,1,0,1,73.66
2013-9-2,92.8,77.1,67.3,61.5,57.2,46.1,73,54,22,30.15,30.06,6,0,7,0.00
2013-9-3,92.3,77.7,69.3,62.8,59.2,55.0,71,55,32,30.18,30.12,5,0,6,0.00
2013-9-4,72.7,71.2,69.8,62.3,61.6,60.7,73,72,70,30.18,30.18,2,0,2,0.00
2013-9-5,96.3,82.5,41.3,63.6,56.4,31.5,67,43,18,30.06,29.95,7,1,10,73.66
2013-9-6,95.7,79.8,69.6,64.1,58.7,49.1,70,52,22,29.98,29.89,7,0,9,0.00
2013-9-7,96.3,80.2,70.0,66.1,59.2,52.1,73,53,25,30.06,29.95,16,0,8,0.00
2013-9-20,91.2,80.6,41.3,60.2,54.9,31.5,77,45,27,29.97,29.89,2,0,19,73.66
2013-10-18,87.4,72.0,41.3,57.9,53.3,31.5,79,55,28,30.12,29.97,3,0,5,73.66
2013-10-19,83.3,67.8,60.6,60.5,55.9,46.1,84,68,31,30.27,30.09,6,1,6,0.00
2013-10-20,64.6,61.3,59.4,56.1,53.0,50.7,76,74,72,30.27,30.24,1,0,1,0.00